Time;durP1;ratioP1;P1;durP2;ratioP2;P2;SDS_P1;SDS_P2;PMS_P1;PMS_P2;Temp;Humidity;BMP_temperature;BMP_pressure;BME280_temperature;BME280_humidity;BME280_pressure;Samples;Min_cycle;Max_cycle;Signal;HPM_P1;HPM_P2
2022/09/28 00:01:50;;;;;;;7.90;4.47;;;8.50;99.90;;;;;;4400759;27;10000512;-82
2022/09/28 00:04:16;;;;;;;6.55;4.15;;;8.50;99.90;;;;;;5134508;27;20405;-82
2022/09/28 00:06:42;;;;;;;7.60;4.10;;;8.50;99.90;;;;;;5130759;27;20030;-82
2022/09/28 00:09:07;;;;;;;6.18;3.88;;;8.50;99.90;;;;;;5124943;27;20053;-82
2022/09/28 00:11:33;;;;;;;5.00;4.22;;;8.50;99.90;;;;;;5130837;27;20450;-82
2022/09/28 00:14:02;;;;;;;4.97;4.10;;;8.50;99.90;;;;;;5121173;27;20023;-82
2022/09/28 00:16:33;;;;;;;6.78;4.53;;;8.50;99.90;;;;;;5116707;27;20035;-82
2022/09/28 00:18:59;;;;;;;5.82;4.32;;;8.50;99.90;;;;;;5123983;27;20099;-82
2022/09/28 00:21:28;;;;;;;5.63;4.90;;;8.50;99.90;;;;;;5131645;27;20072;-82
2022/09/28 00:24:11;;;;;;;6.53;5.32;;;8.50;99.90;;;;;;5136263;27;20015;-82
2022/09/28 00:26:48;;;;;;;9.45;5.88;;;8.50;99.90;;;;;;5113710;27;20045;-81
2022/09/28 00:29:25;;;;;;;9.00;5.65;;;8.50;99.90;;;;;;5122955;27;20103;-81
2022/09/28 00:31:58;;;;;;;11.02;5.75;;;8.50;99.90;;;;;;5110651;27;20454;-81
2022/09/28 00:34:32;;;;;;;9.90;5.68;;;8.50;99.90;;;;;;5128969;27;20019;-81
2022/09/28 00:36:58;;;;;;;7.60;5.88;;;8.50;99.90;;;;;;5119434;27;20027;-81
2022/09/28 00:39:24;;;;;;;8.82;5.93;;;8.50;99.90;;;;;;5103486;27;20029;-81
2022/09/28 00:41:50;;;;;;;9.45;6.25;;;8.50;99.90;;;;;;5129185;27;20053;-82
2022/09/28 00:44:24;;;;;;;9.50;5.65;;;8.50;99.90;;;;;;5124382;27;20401;-81
2022/09/28 00:46:55;;;;;;;7.90;5.70;;;8.50;99.90;;;;;;5128781;27;20026;-81
2022/09/28 00:49:33;;;;;;;7.85;5.90;;;8.50;99.90;;;;;;5121233;27;20229;-81
2022/09/28 00:52:02;;;;;;;9.85;5.82;;;8.50;99.90;;;;;;5120752;27;20042;-82
2022/09/28 00:54:28;;;;;;;6.82;5.40;;;8.50;99.90;;;;;;5122023;27;20368;-83
2022/09/28 00:56:54;;;;;;;8.40;5.65;;;8.50;99.90;;;;;;5111716;27;20385;-82
2022/09/28 00:59:23;;;;;;;10.93;5.72;;;8.50;99.90;;;;;;5126742;27;20410;-81
2022/09/28 01:01:49;;;;;;;8.82;6.07;;;8.50;99.90;;;;;;5127545;27;20072;-80
2022/09/28 01:04:16;;;;;;;8.32;6.07;;;8.50;99.90;;;;;;5137780;27;20083;-80
2022/09/28 01:06:44;;;;;;;8.85;6.18;;;8.50;99.90;;;;;;5132632;27;20023;-80
2022/09/28 01:09:11;;;;;;;9.25;6.70;;;8.50;99.90;;;;;;5119999;27;20439;-80
2022/09/28 01:11:38;;;;;;;9.35;6.65;;;8.50;99.90;;;;;;5119586;27;20456;-80
2022/09/28 01:14:07;;;;;;;8.35;6.65;;;8.50;99.90;;;;;;5128333;27;20047;-79
2022/09/28 01:16:51;;;;;;;9.68;7.25;;;8.50;99.90;;;;;;5121026;27;20134;-79
2022/09/28 01:19:44;;;;;;;10.90;7.20;;;8.50;99.90;;;;;;5129834;27;20060;-79
2022/09/28 01:22:27;;;;;;;12.60;8.32;;;8.40;99.90;;;;;;5122178;27;20076;-79
2022/09/28 01:25:08;;;;;;;10.10;8.15;;;8.50;99.90;;;;;;5117739;27;20395;-79
2022/09/28 01:27:47;;;;;;;16.02;8.88;;;8.40;99.90;;;;;;5118800;27;21744;-79
2022/09/28 01:30:18;;;;;;;13.10;8.45;;;8.40;99.90;;;;;;5132335;27;20035;-79
2022/09/28 01:32:44;;;;;;;12.70;9.27;;;8.40;99.90;;;;;;5118678;27;20015;-79
2022/09/28 01:35:19;;;;;;;15.40;9.35;;;8.40;99.90;;;;;;5134769;27;20027;-79
2022/09/28 01:37:52;;;;;;;13.35;9.48;;;8.40;99.90;;;;;;5129091;27;20265;-79
2022/09/28 01:40:21;;;;;;;14.63;8.93;;;8.40;99.90;;;;;;5118943;27;20023;-79
2022/09/28 01:42:50;;;;;;;13.45;9.25;;;8.40;99.90;;;;;;5116397;27;20043;-79
2022/09/28 01:45:22;;;;;;;21.13;9.50;;;8.50;99.90;;;;;;5132724;27;20401;-79
2022/09/28 01:47:49;;;;;;;14.60;9.32;;;8.50;99.90;;;;;;5133881;27;20449;-79
2022/09/28 01:50:22;;;;;;;13.15;9.02;;;8.50;99.90;;;;;;5128586;27;20031;-79
2022/09/28 01:53:03;;;;;;;13.45;10.15;;;8.50;99.90;;;;;;5128569;27;20474;-79
2022/09/28 01:55:41;;;;;;;12.93;10.00;;;8.40;99.90;;;;;;5137047;27;20534;-79
2022/09/28 01:58:31;;;;;;;12.27;8.82;;;8.50;99.90;;;;;;5131990;27;20026;-79
2022/09/28 02:01:03;;;;;;;13.02;9.35;;;8.50;99.90;;;;;;5120288;27;20527;-80
2022/09/28 02:03:45;;;;;;;13.98;9.13;;;8.50;99.90;;;;;;5116155;27;20031;-80
2022/09/28 02:06:45;;;;;;;15.50;9.45;;;8.40;99.90;;;;;;5111688;27;20031;-80
2022/09/28 02:09:17;;;;;;;11.38;8.35;;;8.40;99.90;;;;;;5108027;27;20054;-80
2022/09/28 02:11:49;;;;;;;11.30;8.52;;;8.40;99.90;;;;;;5123339;27;20106;-79
2022/09/28 02:14:17;;;;;;;12.40;8.87;;;8.40;99.90;;;;;;5117425;27;20016;-80
2022/09/28 02:16:45;;;;;;;15.75;8.95;;;8.40;99.90;;;;;;5121042;27;20038;-80
2022/09/28 02:19:14;;;;;;;10.63;8.90;;;8.40;99.90;;;;;;5130988;27;20031;-79
2022/09/28 02:21:51;;;;;;;11.80;9.07;;;8.40;99.90;;;;;;5138088;27;20130;-79
2022/09/28 02:24:23;;;;;;;13.25;8.63;;;8.30;99.90;;;;;;5125100;27;20123;-79
2022/09/28 02:26:51;;;;;;;9.97;8.20;;;8.30;99.90;;;;;;5111196;27;20027;-80
2022/09/28 02:29:16;;;;;;;11.15;9.02;;;8.30;99.90;;;;;;5123291;27;20049;-80
2022/09/28 02:31:42;;;;;;;10.02;7.95;;;8.30;99.90;;;;;;5124705;27;20478;-80
2022/09/28 02:34:08;;;;;;;10.02;8.43;;;8.30;99.90;;;;;;5139383;27;20452;-80
2022/09/28 02:36:34;;;;;;;13.70;8.70;;;8.30;99.90;;;;;;5122377;27;20022;-81
2022/09/28 02:39:01;;;;;;;9.98;8.38;;;8.30;99.90;;;;;;5126953;27;20575;-79
2022/09/28 02:42:16;;;;;;;10.48;8.50;;;8.30;99.90;;;;;;5134704;27;20334;-79
2022/09/28 02:44:47;;;;;;;10.25;7.55;;;8.30;99.90;;;;;;5046808;27;20045;-79
2022/09/28 02:47:32;;;;;;;10.85;7.68;;;8.30;99.90;;;;;;5103232;27;20077;-80
2022/09/28 02:50:06;;;;;;;7.65;6.85;;;8.30;99.90;;;;;;5112762;27;20032;-80
2022/09/28 02:53:01;;;;;;;10.82;8.10;;;8.30;99.90;;;;;;5130660;27;20075;-79
2022/09/28 02:55:44;;;;;;;9.52;7.55;;;8.30;99.90;;;;;;5096341;27;20035;-79
2022/09/28 02:58:35;;;;;;;10.23;7.70;;;8.30;99.90;;;;;;5123562;27;20035;-79
2022/09/28 03:01:23;;;;;;;8.35;7.45;;;8.30;99.90;;;;;;5114542;27;20059;-79
2022/09/28 03:04:09;;;;;;;10.90;7.90;;;8.30;99.90;;;;;;5115898;27;20067;-79
2022/09/28 03:07:05;;;;;;;11.25;7.47;;;8.30;99.90;;;;;;5121719;27;20040;-79
2022/09/28 03:09:44;;;;;;;8.52;6.70;;;8.30;99.90;;;;;;5118007;27;20019;-78
2022/09/28 03:12:14;;;;;;;9.20;6.30;;;8.30;99.90;;;;;;5136681;27;20034;-78
2022/09/28 03:14:40;;;;;;;9.45;6.07;;;8.30;99.90;;;;;;5142188;27;20126;-78
2022/09/28 03:17:05;;;;;;;7.22;5.68;;;8.40;99.90;;;;;;5126931;27;20023;-78
2022/09/28 03:19:32;;;;;;;6.35;5.70;;;8.30;99.90;;;;;;5114753;27;20015;-78
2022/09/28 03:21:58;;;;;;;6.68;6.00;;;8.40;99.90;;;;;;5111700;27;20036;-78
2022/09/28 03:24:24;;;;;;;6.57;5.65;;;8.40;99.90;;;;;;5130559;27;20083;-78
2022/09/28 03:26:50;;;;;;;7.40;5.63;;;8.40;99.90;;;;;;5126319;27;20023;-78
2022/09/28 03:29:16;;;;;;;7.57;6.00;;;8.40;99.90;;;;;;5132841;27;20027;-79
2022/09/28 03:31:42;;;;;;;7.72;5.90;;;8.40;99.90;;;;;;5139325;27;20425;-79
2022/09/28 03:34:08;;;;;;;8.70;5.60;;;8.40;99.90;;;;;;5128205;27;20152;-79
2022/09/28 03:36:34;;;;;;;6.05;5.40;;;8.40;99.90;;;;;;5127501;27;20051;-79
2022/09/28 03:38:59;;;;;;;6.85;5.18;;;8.40;99.90;;;;;;5119857;27;20018;-79
2022/09/28 03:41:28;;;;;;;4.88;4.47;;;8.40;99.90;;;;;;5115780;27;20037;-79
2022/09/28 03:43:54;;;;;;;7.10;4.78;;;8.40;99.90;;;;;;5117308;27;20486;-80
2022/09/28 03:46:19;;;;;;;6.15;4.47;;;8.40;99.90;;;;;;5119921;27;20027;-80
2022/09/28 03:48:45;;;;;;;4.97;4.20;;;8.40;99.90;;;;;;5121172;27;20024;-80
2022/09/28 03:51:11;;;;;;;4.53;3.45;;;8.40;99.90;;;;;;5121810;27;20109;-80
2022/09/28 03:53:37;;;;;;;4.60;3.88;;;8.40;99.90;;;;;;5131975;27;20041;-80
2022/09/28 03:56:14;;;;;;;4.53;3.17;;;8.40;99.90;;;;;;5112488;27;20028;-79
2022/09/28 03:58:40;;;;;;;3.65;3.35;;;8.40;99.90;;;;;;5122679;27;20015;-80
2022/09/28 04:01:11;;;;;;;3.50;3.20;;;8.40;99.90;;;;;;5122399;27;20394;-79
2022/09/28 04:03:37;;;;;;;3.53;3.20;;;8.40;99.90;;;;;;5118868;27;20031;-79
2022/09/28 04:06:03;;;;;;;4.85;3.00;;;8.30;99.90;;;;;;5134542;27;20027;-79
2022/09/28 04:08:28;;;;;;;3.85;2.88;;;8.40;99.90;;;;;;5121980;27;20023;-79
2022/09/28 04:10:58;;;;;;;4.20;3.40;;;8.40;99.90;;;;;;5124818;27;20102;-78
2022/09/28 04:13:25;;;;;;;3.53;3.15;;;8.40;99.90;;;;;;5111202;27;20031;-79
2022/09/28 04:15:53;;;;;;;4.75;2.58;;;8.40;99.90;;;;;;5129825;27;20526;-79
2022/09/28 04:18:18;;;;;;;4.15;2.80;;;8.40;99.90;;;;;;5124363;27;20399;-79
2022/09/28 04:20:46;;;;;;;2.85;2.58;;;8.40;99.90;;;;;;5131082;27;20031;-78
2022/09/28 04:23:13;;;;;;;3.55;2.80;;;8.40;99.90;;;;;;5116938;27;20030;-79
2022/09/28 04:25:39;;;;;;;3.63;2.83;;;8.30;99.90;;;;;;5133625;27;20494;-78
2022/09/28 04:30:49;;;;;;;3.58;3.13;;;8.30;99.90;;;;;;5119734;27;20123;-79
2022/09/28 04:33:14;;;;;;;4.35;2.67;;;8.30;99.90;;;;;;5116053;27;20102;-80
2022/09/28 04:35:40;;;;;;;4.18;2.92;;;8.30;99.90;;;;;;5130468;27;20023;-80
2022/09/28 04:38:05;;;;;;;5.30;3.17;;;8.30;99.90;;;;;;5122946;27;20016;-79
2022/09/28 04:40:31;;;;;;;5.07;3.08;;;8.30;99.90;;;;;;5135541;27;20050;-78
2022/09/28 04:42:57;;;;;;;4.68;3.15;;;8.30;99.90;;;;;;5111325;27;20552;-79
2022/09/28 04:45:25;;;;;;;3.63;2.95;;;8.20;99.90;;;;;;5120695;27;20046;-79
2022/09/28 04:47:51;;;;;;;6.78;4.25;;;8.20;99.90;;;;;;5118210;27;20067;-80
2022/09/28 04:50:17;;;;;;;5.93;3.88;;;8.20;99.90;;;;;;5124279;27;20027;-79
2022/09/28 04:52:42;;;;;;;7.03;3.10;;;8.20;99.90;;;;;;5121142;27;20510;-78
2022/09/28 04:55:12;;;;;;;4.85;3.53;;;8.20;99.90;;;;;;5118580;27;20015;-79
2022/09/28 04:57:37;;;;;;;4.80;3.72;;;8.20;99.90;;;;;;5113919;27;20080;-79
2022/09/28 05:00:04;;;;;;;4.00;3.45;;;8.30;99.90;;;;;;5122377;27;20023;-79
2022/09/28 05:02:29;;;;;;;4.40;3.80;;;8.30;99.90;;;;;;5124430;27;20462;-79
2022/09/28 05:04:57;;;;;;;5.90;4.43;;;8.30;99.90;;;;;;5116559;27;20019;-78
2022/09/28 05:07:23;;;;;;;5.13;4.43;;;8.30;99.90;;;;;;5119742;27;20042;-78
2022/09/28 05:09:49;;;;;;;8.10;4.82;;;8.30;99.90;;;;;;5121357;27;20027;-79
2022/09/28 05:12:14;;;;;;;6.05;5.00;;;8.30;99.90;;;;;;5130391;27;20025;-79
2022/09/28 05:14:40;;;;;;;5.30;4.60;;;8.30;99.90;;;;;;5137646;27;20018;-80
2022/09/28 05:17:06;;;;;;;6.22;4.85;;;8.30;99.90;;;;;;5133872;27;20188;-79
2022/09/28 05:19:33;;;;;;;6.32;5.20;;;8.30;99.90;;;;;;5114869;27;20494;-79
2022/09/28 05:22:02;;;;;;;9.43;6.07;;;8.30;99.90;;;;;;5121163;27;20035;-79
2022/09/28 05:24:28;;;;;;;7.30;6.00;;;8.30;99.90;;;;;;5115388;27;20524;-80
2022/09/28 05:26:54;;;;;;;9.35;7.07;;;8.30;99.90;;;;;;5114500;27;20027;-79
2022/09/28 05:29:19;;;;;;;12.68;9.20;;;8.30;99.90;;;;;;5113810;27;20028;-77
2022/09/28 05:31:45;;;;;;;14.10;10.38;;;8.30;99.90;;;;;;5140793;27;20038;-79
2022/09/28 05:34:11;;;;;;;17.60;11.30;;;8.30;99.90;;;;;;5139759;27;20018;-79
2022/09/28 05:36:38;;;;;;;18.05;12.38;;;8.40;99.90;;;;;;5125735;27;20030;-79
2022/09/28 05:39:03;;;;;;;20.80;13.30;;;8.40;99.90;;;;;;5141109;27;20031;-81
2022/09/28 05:41:29;;;;;;;15.15;10.32;;;8.30;99.90;;;;;;5136721;27;20102;-78
2022/09/28 05:43:55;;;;;;;9.93;7.55;;;8.30;99.90;;;;;;5145851;27;20026;-79
2022/09/28 05:46:22;;;;;;;8.23;7.13;;;8.30;99.90;;;;;;5126074;27;20109;-78
2022/09/28 05:48:48;;;;;;;8.40;6.45;;;8.30;99.90;;;;;;4765713;27;10000218;-79
2022/09/28 05:51:14;;;;;;;7.72;5.78;;;8.30;99.90;;;;;;5124235;27;20066;-79
2022/09/28 05:53:40;;;;;;;7.10;5.50;;;8.30;99.90;;;;;;5137254;27;20057;-77
2022/09/28 05:56:05;;;;;;;5.88;5.28;;;8.30;99.90;;;;;;5142227;27;20101;-76
2022/09/28 05:58:31;;;;;;;8.07;6.55;;;8.30;99.90;;;;;;5124372;27;20019;-81
2022/09/28 06:00:57;;;;;;;6.70;6.00;;;8.30;99.90;;;;;;5121112;27;20026;-77
2022/09/28 06:03:23;;;;;;;7.40;5.65;;;8.30;99.90;;;;;;5118797;27;20050;-81
2022/09/28 06:05:48;;;;;;;7.38;6.03;;;8.30;99.90;;;;;;5128400;27;20061;-78
2022/09/28 06:08:14;;;;;;;9.05;6.05;;;8.30;99.90;;;;;;5117330;27;20542;-80
2022/09/28 06:10:40;;;;;;;7.18;6.35;;;8.40;99.90;;;;;;5119530;27;20019;-77
2022/09/28 06:13:06;;;;;;;7.03;6.20;;;8.40;99.90;;;;;;5116383;27;20062;-76
2022/09/28 06:15:34;;;;;;;8.73;5.93;;;8.40;99.90;;;;;;5114950;27;20467;-78
2022/09/28 06:18:01;;;;;;;5.90;4.75;;;8.30;99.90;;;;;;5117107;27;20039;-81
2022/09/28 06:20:30;;;;;;;8.98;5.10;;;8.30;99.90;;;;;;5104974;28;20761;-80
2022/09/28 06:22:56;;;;;;;6.13;4.97;;;8.30;99.90;;;;;;5125884;27;20035;-80
2022/09/28 06:25:22;;;;;;;7.20;5.05;;;8.20;99.90;;;;;;5129321;27;20018;-75
2022/09/28 06:27:55;;;;;;;7.40;5.53;;;8.30;99.90;;;;;;5143207;27;20033;-84
2022/09/28 06:30:22;;;;;;;5.60;4.75;;;8.30;99.90;;;;;;5109309;27;20346;-84
2022/09/28 06:32:50;;;;;;;8.10;4.93;;;8.30;99.90;;;;;;5109672;27;20051;-84
2022/09/28 06:35:16;;;;;;;5.88;4.57;;;8.40;99.90;;;;;;5111170;27;20054;-84
2022/09/28 06:37:44;;;;;;;10.55;5.60;;;8.30;99.90;;;;;;5116708;27;20046;-84
2022/09/28 06:40:09;;;;;;;8.63;4.88;;;8.40;99.90;;;;;;5129224;27;20026;-84
2022/09/28 06:42:35;;;;;;;7.63;5.13;;;8.40;99.90;;;;;;5134194;27;20051;-84
2022/09/28 06:45:01;;;;;;;7.22;5.05;;;8.40;99.90;;;;;;5104018;27;20031;-83
2022/09/28 06:47:27;;;;;;;7.22;5.20;;;8.40;99.90;;;;;;5093649;28;20055;-83
2022/09/28 06:49:54;;;;;;;6.53;5.22;;;8.40;99.90;;;;;;5122574;27;20038;-84
2022/09/28 06:52:20;;;;;;;7.45;5.10;;;8.40;99.90;;;;;;5097665;27;20102;-83
2022/09/28 06:54:45;;;;;;;7.22;5.15;;;8.40;99.90;;;;;;5127724;27;20098;-83
2022/09/28 06:57:11;;;;;;;5.90;5.07;;;8.30;99.90;;;;;;5126634;27;20052;-83
2022/09/28 06:59:37;;;;;;;7.45;5.40;;;8.40;99.90;;;;;;5110405;27;20023;-83
2022/09/28 07:02:03;;;;;;;6.18;4.93;;;8.40;99.90;;;;;;5111438;27;20043;-83
2022/09/28 07:04:30;;;;;;;6.35;5.22;;;8.40;99.90;;;;;;5106243;28;20420;-83
2022/09/28 07:06:55;;;;;;;9.55;6.18;;;8.50;99.90;;;;;;5106114;28;20500;-83
2022/09/28 07:09:21;;;;;;;6.93;5.45;;;8.50;99.90;;;;;;5087897;28;20024;-82
2022/09/28 07:11:47;;;;;;;6.13;5.20;;;8.60;99.90;;;;;;5118730;27;20036;-82
2022/09/28 07:14:12;;;;;;;6.90;4.97;;;8.60;99.90;;;;;;5118470;27;20036;-82
2022/09/28 07:16:38;;;;;;;7.05;5.35;;;8.70;99.90;;;;;;5095293;28;20020;-83
2022/09/28 07:19:04;;;;;;;6.60;4.82;;;8.70;99.90;;;;;;5087066;28;20070;-82
2022/09/28 07:21:29;;;;;;;8.55;6.55;;;8.70;99.90;;;;;;5101476;27;20039;-82
2022/09/28 07:23:55;;;;;;;7.65;6.60;;;8.70;99.90;;;;;;5088203;28;20365;-83
2022/09/28 07:26:21;;;;;;;8.48;7.32;;;8.80;99.90;;;;;;5105483;28;20022;-82
2022/09/28 07:28:46;;;;;;;10.18;6.63;;;8.80;99.90;;;;;;5108199;28;20471;-82
2022/09/28 07:31:12;;;;;;;9.95;6.78;;;8.90;99.90;;;;;;5104105;28;20118;-82
2022/09/28 07:33:38;;;;;;;8.23;5.93;;;8.90;99.90;;;;;;5128389;27;20481;-82
2022/09/28 07:36:05;;;;;;;7.78;6.03;;;8.80;99.90;;;;;;5112825;27;20373;-82
2022/09/28 07:38:34;;;;;;;8.05;6.15;;;8.80;99.90;;;;;;5086625;28;20069;-82
2022/09/28 07:41:13;;;;;;;7.63;6.43;;;8.80;99.90;;;;;;5108253;27;20475;-82
2022/09/28 07:43:40;;;;;;;7.82;6.25;;;8.80;99.90;;;;;;5121940;27;20588;-82
2022/09/28 07:46:13;;;;;;;8.82;7.18;;;8.80;99.90;;;;;;5106412;28;20063;-82
2022/09/28 07:48:40;;;;;;;8.13;6.20;;;8.80;99.90;;;;;;5110744;27;20475;-82
2022/09/28 07:51:06;;;;;;;7.43;6.20;;;8.90;99.90;;;;;;5116344;27;20516;-82
2022/09/28 07:53:32;;;;;;;8.30;6.28;;;9.10;99.90;;;;;;5115969;27;20032;-82
2022/09/28 07:56:00;;;;;;;13.15;6.88;;;9.20;99.90;;;;;;5109049;27;20323;-78
2022/09/28 07:58:26;;;;;;;8.20;6.47;;;9.30;99.90;;;;;;5111232;27;20031;-79
2022/09/28 08:00:52;;;;;;;9.98;7.60;;;9.40;99.90;;;;;;5124401;27;20015;-79
2022/09/28 08:03:21;;;;;;;11.10;8.77;;;9.50;99.90;;;;;;5129670;27;20033;-78
2022/09/28 08:05:46;;;;;;;11.70;9.13;;;9.60;99.90;;;;;;5129212;27;20019;-78
2022/09/28 08:08:12;;;;;;;11.27;8.52;;;9.70;99.90;;;;;;5123287;27;20021;-77
2022/09/28 08:10:40;;;;;;;13.25;7.93;;;9.80;99.90;;;;;;5117121;27;20605;-80
2022/09/28 08:13:06;;;;;;;11.43;7.47;;;9.80;99.90;;;;;;5108581;27;20420;-83
2022/09/28 08:15:35;;;;;;;9.25;7.75;;;9.80;99.90;;;;;;5106533;27;20031;-83
2022/09/28 08:18:02;;;;;;;9.07;6.85;;;9.70;99.90;;;;;;5125840;27;20023;-83
2022/09/28 08:23:12;;;;;;;11.35;7.40;;;9.70;99.90;;;;;;5107733;28;20080;-82
2022/09/28 08:25:37;;;;;;;10.73;7.45;;;9.60;99.90;;;;;;5129392;27;20026;-76
2022/09/28 08:28:07;;;;;;;10.02;6.90;;;9.60;99.90;;;;;;4755757;27;10000248;-74
2022/09/28 08:30:32;;;;;;;8.60;7.07;;;9.60;99.90;;;;;;5123940;27;20380;-75
2022/09/28 08:32:58;;;;;;;9.15;7.00;;;9.60;99.90;;;;;;5111254;27;20061;-75
2022/09/28 08:35:24;;;;;;;9.20;7.05;;;9.70;99.90;;;;;;5132080;27;20011;-74
2022/09/28 08:37:53;;;;;;;12.98;7.30;;;9.70;99.90;;;;;;5140252;27;20102;-78
2022/09/28 08:40:24;;;;;;;11.63;7.40;;;9.80;99.90;;;;;;5112699;27;20031;-79
2022/09/28 08:42:53;;;;;;;8.80;7.32;;;9.90;99.90;;;;;;5107650;28;20062;-79
2022/09/28 08:45:26;;;;;;;10.23;6.95;;;10.00;99.90;;;;;;5103000;28;20020;-76
2022/09/28 08:51:14;;;;;;;8.35;6.70;;;10.10;99.90;;;;;;5091131;28;20089;-76
2022/09/28 08:53:43;;;;;;;11.07;6.80;;;10.10;99.90;;;;;;5099825;28;20446;-77
2022/09/28 08:56:43;;;;;;;10.23;7.47;;;10.10;99.90;;;;;;5116793;28;20016;-74
2022/09/28 08:59:14;;;;;;;11.88;7.57;;;10.30;99.90;;;;;;5039197;28;20040;-75
2022/09/28 09:01:47;;;;;;;14.32;8.15;;;10.40;99.90;;;;;;5096165;28;20102;-74
2022/09/28 09:04:13;;;;;;;9.52;7.13;;;10.50;99.90;;;;;;5101676;28;20032;-74
2022/09/28 09:07:08;;;;;;;9.50;6.38;;;10.70;99.90;;;;;;5098338;28;20024;-75
2022/09/28 09:09:46;;;;;;;6.47;5.50;;;10.90;99.90;;;;;;5107063;28;20058;-75
2022/09/28 09:12:37;;;;;;;7.88;4.90;;;11.10;99.90;;;;;;5090930;28;20055;-75
2022/09/28 09:15:17;;;;;;;5.97;4.60;;;11.30;99.90;;;;;;5116820;28;20020;-77
2022/09/28 09:18:15;;;;;;;5.18;4.40;;;11.30;99.90;;;;;;5091744;28;20031;-77
2022/09/28 09:20:55;;;;;;;8.57;5.22;;;11.20;99.90;;;;;;5087784;27;20020;-75
2022/09/28 09:23:23;;;;;;;5.97;4.40;;;11.20;99.90;;;;;;5109152;27;20101;-74
2022/09/28 09:25:54;;;;;;;5.20;4.65;;;11.00;99.90;;;;;;5102689;28;20587;-73
2022/09/28 09:28:47;;;;;;;7.80;4.93;;;10.90;99.90;;;;;;5104521;27;20038;-75
2022/09/28 09:31:35;;;;;;;8.40;6.65;;;10.80;99.90;;;;;;5107304;28;20031;-75
2022/09/28 09:34:19;;;;;;;8.13;5.45;;;10.70;99.90;;;;;;5102505;28;20070;-75
2022/09/28 09:36:50;;;;;;;9.85;5.75;;;10.50;99.90;;;;;;5090030;27;20402;-75
2022/09/28 09:39:46;;;;;;;13.73;8.90;;;10.40;99.90;;;;;;5097900;27;20057;-74
2022/09/28 09:42:46;;;;;;;6.75;4.60;;;10.30;99.90;;;;;;5103974;28;20054;-74
2022/09/28 09:45:47;;;;;;;15.60;8.95;;;10.20;99.90;;;;;;5131475;27;20030;-74
2022/09/28 09:48:22;;;;;;;15.73;7.57;;;10.00;99.90;;;;;;5095911;27;20498;-74
2022/09/28 09:50:54;;;;;;;14.75;9.00;;;10.00;99.90;;;;;;5140875;27;20030;-75
2022/09/28 09:53:42;;;;;;;14.75;7.28;;;9.90;99.90;;;;;;5138554;27;20023;-74
2022/09/28 09:56:33;;;;;;;4.63;2.78;;;10.00;99.90;;;;;;5112247;27;20015;-75
2022/09/28 09:59:07;;;;;;;3.53;2.95;;;10.00;99.90;;;;;;5122906;27;20122;-75
2022/09/28 10:01:36;;;;;;;1.92;1.77;;;10.10;99.90;;;;;;5141181;27;20046;-75
2022/09/28 10:04:06;;;;;;;2.85;1.95;;;10.20;99.90;;;;;;5144857;27;20561;-76
2022/09/28 10:06:36;;;;;;;2.72;2.30;;;10.30;99.90;;;;;;5137056;27;20113;-76
2022/09/28 10:09:12;;;;;;;3.40;2.10;;;10.40;99.90;;;;;;5131822;27;20110;-76
2022/09/28 10:11:46;;;;;;;4.68;2.17;;;10.60;99.90;;;;;;5119111;27;20034;-77
2022/09/28 10:14:20;;;;;;;3.30;2.10;;;10.70;99.90;;;;;;5129264;27;20111;-77
2022/09/28 10:16:48;;;;;;;1.85;1.73;;;10.80;99.90;;;;;;5121488;27;20079;-75
2022/09/28 10:19:17;;;;;;;2.80;2.35;;;11.00;99.90;;;;;;5135840;27;20029;-77
2022/09/28 10:21:45;;;;;;;3.47;2.30;;;11.10;99.90;;;;;;5140211;27;20023;-73
2022/09/28 10:24:34;;;;;;;3.05;2.60;;;11.20;99.90;;;;;;5109568;27;20058;-75
2022/09/28 10:27:13;;;;;;;4.20;3.15;;;11.30;99.90;;;;;;5113483;27;20091;-75
2022/09/28 10:29:58;;;;;;;8.10;4.47;;;11.40;99.90;;;;;;5109059;27;20026;-75
2022/09/28 10:32:26;;;;;;;5.30;3.97;;;11.60;99.90;;;;;;5129652;27;20039;-75
2022/09/28 10:34:53;;;;;;;7.75;3.97;;;11.70;99.90;;;;;;5112972;27;20055;-75
2022/09/28 10:37:20;;;;;;;7.03;4.28;;;11.80;99.90;;;;;;5117306;27;20030;-75
2022/09/28 10:39:54;;;;;;;5.90;4.63;;;11.90;99.90;;;;;;5122628;27;20393;-75
2022/09/28 10:42:24;;;;;;;5.88;4.82;;;12.10;99.90;;;;;;5114107;27;20070;-75
2022/09/28 10:44:55;;;;;;;4.82;4.20;;;12.30;99.90;;;;;;5106079;27;20373;-75
2022/09/28 10:47:24;;;;;;;5.82;4.65;;;12.40;99.90;;;;;;5103220;27;20027;-75
2022/09/28 10:49:52;;;;;;;7.10;4.28;;;12.40;99.90;;;;;;5086582;27;20028;-74
2022/09/28 10:52:39;;;;;;;7.18;4.72;;;12.50;99.90;;;;;;5117703;27;20487;-74
2022/09/28 10:55:19;;;;;;;5.22;4.13;;;12.80;99.90;;;;;;5085508;28;20036;-74
2022/09/28 10:57:45;;;;;;;8.52;5.38;;;12.90;99.90;;;;;;5094557;27;20413;-74
2022/09/28 11:00:29;;;;;;;4.90;4.40;;;12.90;99.90;;;;;;5108706;27;20395;-74
2022/09/28 11:02:54;;;;;;;5.45;3.90;;;12.90;99.90;;;;;;5094324;27;20383;-74
2022/09/28 11:05:23;;;;;;;3.80;3.50;;;12.90;99.90;;;;;;5085825;28;20050;-74
2022/09/28 11:07:51;;;;;;;4.03;3.63;;;12.90;99.90;;;;;;5092122;27;20032;-73
2022/09/28 11:10:23;;;;;;;4.72;4.20;;;12.90;99.90;;;;;;5115079;27;20039;-73
2022/09/28 11:12:50;;;;;;;5.60;4.53;;;13.00;99.90;;;;;;5118454;27;20030;-73
2022/09/28 11:15:23;;;;;;;5.28;3.95;;;13.30;99.90;;;;;;5101403;27;20414;-73
2022/09/28 11:17:49;;;;;;;6.55;4.72;;;13.50;99.90;;;;;;5083969;27;20038;-74
2022/09/28 11:20:23;;;;;;;7.32;4.57;;;13.60;99.90;;;;;;5087964;27;20322;-74
2022/09/28 11:22:54;;;;;;;13.73;7.05;;;13.50;99.90;;;;;;5098966;27;20122;-74
2022/09/28 11:25:25;;;;;;;9.82;5.60;;;13.20;99.90;;;;;;5111690;27;20491;-73
2022/09/28 11:27:50;;;;;;;5.05;4.13;;;12.90;99.90;;;;;;5080436;28;20206;-74
2022/09/28 11:30:24;;;;;;;5.40;4.18;;;12.70;99.90;;;;;;5110935;27;20035;-72
2022/09/28 11:32:51;;;;;;;4.25;3.80;;;12.40;99.90;;;;;;5125783;27;20340;-73
2022/09/28 11:35:21;;;;;;;3.47;2.90;;;12.10;99.90;;;;;;5107114;27;20052;-74
2022/09/28 11:38:02;;;;;;;4.00;2.13;;;11.80;99.90;;;;;;5099276;27;20086;-77
2022/09/28 11:40:40;;;;;;;3.58;2.25;;;11.50;99.90;;;;;;5108172;27;20039;-75
2022/09/28 11:43:26;;;;;;;3.63;3.10;;;11.30;99.90;;;;;;5116530;27;20080;-74
2022/09/28 11:45:58;;;;;;;4.13;3.17;;;11.10;99.90;;;;;;5111483;27;20040;-75
2022/09/28 11:48:48;;;;;;;3.40;3.10;;;10.80;99.90;;;;;;5108284;27;20050;-76
2022/09/28 11:51:25;;;;;;;5.60;1.60;;;10.60;99.90;;;;;;5101658;27;20041;-74
2022/09/28 11:53:56;;;;;;;4.03;3.03;;;10.40;99.90;;;;;;5089753;27;20503;-75
2022/09/28 11:56:37;;;;;;;6.88;4.40;;;10.30;99.90;;;;;;5111880;27;20027;-75
2022/09/28 11:59:27;;;;;;;4.55;4.10;;;10.20;99.90;;;;;;5099479;27;20042;-76
2022/09/28 12:02:01;;;;;;;3.45;3.15;;;10.10;99.90;;;;;;5101500;27;20324;-76
2022/09/28 12:04:47;;;;;;;3.20;2.90;;;10.10;99.90;;;;;;5098966;27;20254;-75
2022/09/28 12:07:28;;;;;;;3.78;2.95;;;10.20;99.90;;;;;;5105167;27;20027;-75
2022/09/28 12:09:56;;;;;;;4.78;3.90;;;10.20;99.90;;;;;;5107550;27;20526;-76
2022/09/28 12:12:41;;;;;;;10.63;4.75;;;10.20;99.90;;;;;;5100708;27;20119;-76
2022/09/28 12:15:28;;;;;;;8.18;5.20;;;10.10;99.90;;;;;;5095486;27;20420;-76
2022/09/28 12:18:02;;;;;;;4.68;3.10;;;10.10;99.90;;;;;;5111886;27;20102;-75
2022/09/28 12:20:32;;;;;;;3.50;2.67;;;10.10;99.90;;;;;;5100580;27;20033;-75
2022/09/28 12:23:06;;;;;;;3.42;2.95;;;10.10;99.90;;;;;;5116518;27;20546;-76
2022/09/28 12:25:40;;;;;;;3.63;3.25;;;10.10;99.90;;;;;;5088603;28;20043;-75
2022/09/28 12:28:20;;;;;;;3.80;3.15;;;10.20;99.90;;;;;;5096645;28;20653;-75
2022/09/28 12:30:47;;;;;;;3.90;3.45;;;10.30;99.90;;;;;;5096555;28;20122;-75
2022/09/28 12:33:14;;;;;;;5.22;3.50;;;10.40;99.90;;;;;;5112178;28;20034;-75
2022/09/28 12:36:13;;;;;;;4.55;4.00;;;10.60;99.90;;;;;;5103339;28;20491;-79
2022/09/28 12:39:02;;;;;;;5.82;4.60;;;10.90;99.90;;;;;;5106212;28;21068;-78
2022/09/28 12:41:53;;;;;;;6.45;4.57;;;11.10;99.90;;;;;;5112544;27;20031;-77
2022/09/28 12:44:55;;;;;;;5.63;4.65;;;11.40;99.90;;;;;;5137095;27;20081;-77
2022/09/28 12:47:32;;;;;;;6.57;4.50;;;11.90;99.90;;;;;;5103062;27;20647;-77
2022/09/28 12:49:58;;;;;;;4.15;3.75;;;12.20;99.90;;;;;;5134298;27;20058;-77
2022/09/28 12:52:44;;;;;;;5.45;4.18;;;12.40;99.90;;;;;;5140231;27;20742;-76
2022/09/28 12:55:29;;;;;;;2.97;2.38;;;12.30;99.90;;;;;;5127054;27;20087;-77
2022/09/28 12:58:18;;;;;;;3.65;1.92;;;12.00;99.90;;;;;;5134885;27;20509;-77
2022/09/28 13:01:03;;;;;;;4.57;1.88;;;11.50;99.90;;;;;;5134551;27;20027;-78
2022/09/28 13:03:52;;;;;;;4.22;2.05;;;11.10;99.90;;;;;;5119320;27;20043;-78
2022/09/28 13:06:43;;;;;;;5.05;1.90;;;10.80;99.90;;;;;;5113707;27;20091;-76
2022/09/28 13:09:20;;;;;;;2.03;1.77;;;10.60;99.90;;;;;;5124659;27;20038;-77
2022/09/28 13:12:22;;;;;;;1.80;1.70;;;10.50;99.90;;;;;;5146946;27;20034;-77
2022/09/28 13:15:10;;;;;;;3.28;2.05;;;10.50;99.90;;;;;;5028123;28;20028;-77
2022/09/28 13:17:51;;;;;;;3.25;2.00;;;10.50;99.90;;;;;;5115919;27;20039;-77
2022/09/28 13:20:30;;;;;;;2.75;1.80;;;10.50;99.90;;;;;;5130664;27;20087;-76
2022/09/28 13:23:19;;;;;;;2.67;2.47;;;10.50;99.90;;;;;;5110285;27;20387;-78
2022/09/28 13:25:58;;;;;;;2.60;2.40;;;10.50;99.90;;;;;;5133080;27;20023;-77